Time;durP1;ratioP1;P1;durP2;ratioP2;P2;SDS_P1;SDS_P2;PMS_P1;PMS_P2;Temp;Humidity;BMP_temperature;BMP_pressure;BME280_temperature;BME280_humidity;BME280_pressure;Samples;Min_cycle;Max_cycle;Signal;HPM_P1;HPM_P2
2023/09/23 00:00:14;;;;;;;11.80;6.60;;;;;;;22.44;81.56;94938.97;5093892;28;20918;-79
2023/09/23 00:02:42;;;;;;;18.63;8.07;;;;;;;22.48;81.22;94918.84;5093460;28;20438;-78
2023/09/23 00:05:11;;;;;;;15.90;6.83;;;;;;;;;;5094186;28;20791;-79
2023/09/23 00:07:39;;;;;;;11.40;7.60;;;;;;;22.25;82.74;94929.88;5093618;28;20476;-78
2023/09/23 00:10:08;;;;;;;18.50;7.80;;;;;;;21.91;83.04;94894.16;5093583;28;20569;-78
2023/09/23 00:12:36;;;;;;;17.57;7.07;;;;;;;21.88;84.13;94941.81;5058776;28;20513;-79
2023/09/23 00:15:05;;;;;;;17.00;7.40;;;;;;;21.90;83.96;94931.75;5093389;28;20443;-78
2023/09/23 00:17:32;;;;;;;17.50;7.93;;;;;;;21.48;85.28;94911.41;5057397;28;20435;-78
2023/09/23 00:19:59;;;;;;;18.10;8.90;;;;;;;21.58;85.25;94934.06;5074302;28;20461;-78
2023/09/23 00:22:26;;;;;;;17.50;8.90;;;;;;;21.60;85.73;94918.66;5093243;28;20437;-79
2023/09/23 00:24:54;;;;;;;17.30;7.27;;;;;;;21.61;85.40;94927.50;5093863;28;20441;-78
2023/09/23 00:27:21;;;;;;;19.37;9.17;;;;;;;21.72;85.22;94926.97;5093126;28;20457;-78
2023/09/23 00:29:50;;;;;;;21.33;8.90;;;;;;;21.67;85.24;94916.03;5093184;28;20866;-78
2023/09/23 00:32:17;;;;;;;14.67;7.80;;;;;;;21.78;85.58;94930.69;5093559;28;20499;-78
2023/09/23 00:34:44;;;;;;;17.10;8.30;;;;;;;21.81;84.83;94914.25;5093359;28;20454;-78
2023/09/23 00:37:11;;;;;;;17.97;7.90;;;;;;;21.83;84.23;94923.72;5093711;28;20870;-79
2023/09/23 00:39:42;;;;;;;14.53;7.50;;;;;;;21.90;84.32;94921.06;5092909;28;20868;-78
2023/09/23 00:42:10;;;;;;;12.03;7.60;;;;;;;21.94;83.30;94916.97;5059223;28;20449;-79
2023/09/23 00:44:41;;;;;;;22.17;8.17;;;;;;;21.94;83.36;94917.81;5093440;28;20999;-78
2023/09/23 00:47:13;;;;;;;20.90;8.40;;;;;;;21.94;83.50;94909.78;5093311;28;20446;-78
2023/09/23 00:49:41;;;;;;;12.47;7.20;;;;;;;21.99;83.14;94921.75;5057606;28;20479;-78
2023/09/23 00:52:08;;;;;;;13.80;6.67;;;;;;;22.01;83.24;94925.88;5093050;28;20798;-78
2023/09/23 00:54:40;;;;;;;19.33;8.87;;;;;;;22.08;82.27;94909.88;5093449;28;20514;-78
2023/09/23 00:57:08;;;;;;;20.17;8.10;;;;;;;22.12;82.16;94925.31;5092870;28;20477;-78
2023/09/23 00:59:35;;;;;;;19.33;8.37;;;;;;;22.11;81.87;94923.66;5093140;28;20455;-78
2023/09/23 01:02:02;;;;;;;14.03;8.33;;;;;;;22.10;81.89;94918.53;5093283;28;20466;-78
2023/09/23 01:04:31;;;;;;;12.90;7.00;;;;;;;22.15;83.15;94914.22;5096405;28;20448;-78
2023/09/23 01:06:59;;;;;;;13.80;7.03;;;;;;;22.19;82.14;94909.28;5097579;28;20452;-78
2023/09/23 01:09:27;;;;;;;17.73;7.90;;;;;;;22.18;81.43;94911.13;5096780;28;20503;-78
2023/09/23 01:11:55;;;;;;;16.13;7.57;;;;;;;22.15;81.15;94911.56;5097357;28;20823;-78
2023/09/23 01:14:22;;;;;;;18.50;7.70;;;;;;;22.14;81.03;94915.25;5097607;28;20442;-78
2023/09/23 01:16:52;;;;;;;17.17;7.03;;;;;;;22.07;80.81;94919.75;5097232;28;20441;-78
2023/09/23 01:19:20;;;;;;;13.93;7.27;;;;;;;21.96;80.83;94925.63;5097013;28;20790;-78
2023/09/23 01:21:49;;;;;;;19.90;7.37;;;;;;;21.93;80.78;94920.66;5097249;28;20453;-78
2023/09/23 01:24:19;;;;;;;16.03;7.17;;;;;;;21.90;80.51;94921.91;5061807;28;20455;-78
2023/09/23 01:26:51;;;;;;;23.77;8.47;;;;;;;21.86;80.30;94922.50;5097146;28;20443;-78
2023/09/23 01:29:22;;;;;;;15.77;8.33;;;;;;;21.76;80.74;94922.88;5097009;28;20486;-79
2023/09/23 01:32:06;;;;;;;27.33;8.93;;;;;;;21.85;80.73;94921.69;5096873;28;20441;-78
2023/09/23 01:34:34;;;;;;;14.50;7.33;;;;;;;21.91;79.95;94923.53;5096514;28;20778;-78
2023/09/23 01:37:01;;;;;;;26.57;9.60;;;;;;;21.92;80.36;94919.03;5096742;28;20519;-78
2023/09/23 01:39:29;;;;;;;15.60;6.60;;;;;;;21.96;80.95;94905.06;5097059;28;20579;-77
2023/09/23 01:41:56;;;;;;;16.77;7.80;;;;;;;22.00;80.48;94908.19;5096367;28;20444;-77
2023/09/23 01:44:23;;;;;;;12.83;8.50;;;;;;;21.94;80.21;94917.81;5097025;28;20440;-78
2023/09/23 01:46:49;;;;;;;8.97;6.87;;;;;;;21.93;80.48;94916.16;5096382;28;20449;-78
2023/09/23 01:49:17;;;;;;;14.63;6.73;;;;;;;21.91;80.63;94912.03;5096238;28;20572;-78
2023/09/23 01:51:44;;;;;;;12.10;8.03;;;;;;;21.83;81.11;94914.88;5096200;28;20897;-77
2023/09/23 01:54:16;;;;;;;15.53;7.47;;;;;;;21.84;80.82;94913.84;5096450;28;20472;-77
2023/09/23 01:56:45;;;;;;;22.90;7.37;;;;;;;21.71;81.04;94914.63;5062339;28;20455;-78
2023/09/23 01:59:13;;;;;;;18.20;7.70;;;;;;;21.62;81.09;94911.28;5096566;28;20436;-78
2023/09/23 02:01:40;;;;;;;22.53;7.27;;;;;;;21.71;81.09;94927.16;5095922;28;20440;-78
2023/09/23 02:04:08;;;;;;;24.50;9.60;;;;;;;21.48;82.84;94917.59;5096301;28;20455;-78
2023/09/23 02:06:39;;;;;;;16.30;8.17;;;;;;;21.15;84.98;94913.84;5096238;28;20443;-77
2023/09/23 02:09:08;;;;;;;17.47;8.43;;;;;;;21.16;85.40;94918.97;5095661;28;20498;-77
2023/09/23 02:11:35;;;;;;;24.33;8.90;;;;;;;21.22;85.30;94928.06;5095916;28;20557;-77
2023/09/23 02:14:04;;;;;;;15.50;8.63;;;;;;;21.21;84.73;94915.72;5095260;28;20476;-78
2023/09/23 02:16:31;;;;;;;16.13;7.87;;;;;;;20.35;89.69;94920.28;5094980;28;20584;-77
2023/09/23 02:18:57;;;;;;;18.00;8.20;;;;;;;20.56;89.05;94931.00;5095720;28;20443;-77
2023/09/23 02:21:27;;;;;;;19.57;8.67;;;;;;;20.65;88.66;94931.69;5095955;28;20523;-77
2023/09/23 02:23:55;;;;;;;15.23;7.90;;;;;;;20.63;88.25;94933.72;5095389;28;20451;-77
2023/09/23 02:26:22;;;;;;;25.30;10.07;;;;;;;20.62;89.00;94942.72;5095459;28;20448;-77
2023/09/23 02:28:49;;;;;;;17.20;8.03;;;;;;;20.67;88.45;94934.97;5095225;28;20490;-77
2023/09/23 02:31:19;;;;;;;11.20;7.67;;;;;;;20.73;88.76;94940.38;5095533;28;20448;-77
2023/09/23 02:33:46;;;;;;;14.73;7.37;;;;;;;20.73;88.68;94929.69;5095218;28;20518;-78
2023/09/23 02:36:14;;;;;;;15.17;7.40;;;;;;;20.80;88.81;94931.59;5095331;28;20771;-78
2023/09/23 02:38:42;;;;;;;12.63;7.37;;;;;;;20.86;88.17;94934.34;5094863;28;20457;-78
2023/09/23 02:41:09;;;;;;;25.43;7.67;;;;;;;20.89;87.80;94939.28;5095384;28;20503;-77
2023/09/23 02:43:36;;;;;;;18.23;9.60;;;;;;;20.94;88.49;94938.72;5095408;28;20449;-78
2023/09/23 02:46:03;;;;;;;10.50;7.20;;;;;;;20.98;87.94;94946.13;5095208;28;20444;-77
2023/09/23 02:48:33;;;;;;;15.03;8.57;;;;;;;21.02;87.33;94939.38;5095437;28;20448;-77
2023/09/23 02:51:00;;;;;;;13.40;7.50;;;;;;;20.95;87.25;94951.84;5094913;28;20939;-78
2023/09/23 02:53:30;;;;;;;17.30;9.40;;;;;;;20.94;86.42;94941.38;5095344;28;20440;-78
2023/09/23 02:56:07;;;;;;;21.97;7.87;;;;;;;21.06;85.13;94949.66;5095064;28;20437;-78
2023/09/23 02:58:34;;;;;;;19.77;7.07;;;;;;;21.10;84.86;94950.94;5094908;28;20452;-77
2023/09/23 03:01:04;;;;;;;16.87;7.60;;;;;;;21.09;84.85;94951.94;5094763;28;20894;-78
2023/09/23 03:03:33;;;;;;;19.40;6.90;;;;;;;21.02;85.63;94949.25;5094910;28;20532;-78
2023/09/23 03:06:03;;;;;;;20.87;7.00;;;;;;;21.14;85.33;94960.22;5094499;28;20460;-78
2023/09/23 03:08:30;;;;;;;22.10;9.00;;;;;;;21.22;84.34;94960.09;5094749;28;20477;-77
2023/09/23 03:11:02;;;;;;;17.80;9.10;;;;;;;21.27;83.33;94963.03;5058356;28;20572;-77
2023/09/23 03:13:31;;;;;;;19.20;9.17;;;;;;;21.24;83.56;94963.41;5094263;28;20454;-77
2023/09/23 03:16:07;;;;;;;17.80;7.50;;;;;;;21.15;83.64;94965.38;5094243;28;20447;-78
2023/09/23 03:18:36;;;;;;;15.93;8.23;;;;;;;21.11;84.39;94963.28;5058546;28;20439;-77
2023/09/23 03:21:11;;;;;;;12.10;7.83;;;;;;;21.11;84.11;94968.63;5094238;28;20501;-77
2023/09/23 03:23:39;;;;;;;15.90;7.10;;;;;;;21.09;84.19;94973.31;5094173;28;20446;-76
2023/09/23 03:26:06;;;;;;;13.97;8.33;;;;;;;21.07;84.19;94978.00;5093230;28;20956;-77
2023/09/23 03:28:35;;;;;;;16.83;8.20;;;;;;;20.96;84.71;94976.69;5093636;28;20451;-77
2023/09/23 03:31:02;;;;;;;15.80;7.77;;;;;;;20.90;84.30;94972.97;5093589;28;20440;-77
2023/09/23 03:33:30;;;;;;;16.87;8.33;;;;;;;20.84;84.84;94968.38;5093933;28;20443;-78
2023/09/23 03:35:59;;;;;;;15.83;7.70;;;;;;;20.85;87.70;94969.22;5094697;28;20436;-80
2023/09/23 03:38:28;;;;;;;14.60;7.63;;;;;;;20.95;87.01;94970.53;5094431;28;20470;-81
2023/09/23 03:40:57;;;;;;;58.63;22.97;;;;;;;21.00;85.27;94967.28;5059695;28;20449;-79
2023/09/23 03:43:24;;;;;;;25.00;10.13;;;;;;;21.09;84.91;94966.13;5059360;28;20454;-81
2023/09/23 03:45:51;;;;;;;17.20;9.67;;;;;;;21.01;84.33;94956.41;5094910;28;20456;-81
2023/09/23 03:48:18;;;;;;;25.77;8.27;;;;;;;21.07;83.92;94959.31;5094251;28;20900;-79
2023/09/23 03:50:45;;;;;;;16.30;7.57;;;;;;;21.13;84.38;94956.75;5094214;28;20485;-78
2023/09/23 03:53:13;;;;;;;24.03;12.07;;;;;;;21.21;85.93;94969.94;5093895;28;20954;-81
2023/09/23 03:55:40;;;;;;;20.17;7.90;;;;;;;21.31;83.15;94964.28;5094175;28;20929;-79
2023/09/23 03:58:07;;;;;;;17.07;7.87;;;;;;;21.29;82.03;94971.66;5094679;28;20784;-79
2023/09/23 04:00:34;;;;;;;21.90;8.90;;;;;;;21.38;82.34;94970.47;5059115;28;20438;-80
2023/09/23 04:03:01;;;;;;;16.43;8.07;;;;;;;21.42;82.40;94971.78;5098949;28;20466;-80
2023/09/23 04:05:30;;;;;;;28.40;9.27;;;;;;;21.47;82.15;94979.19;5093827;28;20437;-80
2023/09/23 04:07:58;;;;;;;12.70;7.53;;;;;;;21.51;81.55;94965.25;5094075;28;20810;-79
2023/09/23 04:10:27;;;;;;;17.40;7.23;;;;;;;21.47;80.63;94972.00;5058363;28;20889;-80
2023/09/23 04:12:55;;;;;;;17.33;8.43;;;;;;;21.25;81.82;94968.56;5093673;28;20501;-80
2023/09/23 04:15:22;;;;;;;20.57;8.33;;;;;;;21.25;81.98;94978.41;5094357;28;20501;-80
2023/09/23 04:17:50;;;;;;;19.63;8.40;;;;;;;20.93;81.65;94977.09;5094407;28;20439;-81
2023/09/23 04:20:17;;;;;;;16.40;8.40;;;;;;;20.94;82.08;94968.88;5093933;28;20789;-80
2023/09/23 04:22:46;;;;;;;10.63;7.00;;;;;;;20.97;83.47;94981.84;5093914;28;20452;-81
2023/09/23 04:25:13;;;;;;;14.00;7.77;;;;;;;21.10;85.03;94983.78;5093903;28;20441;-80
2023/09/23 04:27:42;;;;;;;13.83;7.57;;;;;;;21.22;83.33;94989.44;5075276;28;20448;-81
2023/09/23 04:30:11;;;;;;;13.83;8.60;;;;;;;21.39;85.78;94990.81;5093802;28;20486;-87
2023/09/23 04:32:39;;;;;;;27.93;7.70;;;;;;;21.91;83.08;94997.53;5095105;28;20499;-80
2023/09/23 04:35:07;;;;;;;16.73;7.00;;;;;;;21.80;79.93;94990.91;5075268;28;20475;-82
2023/09/23 04:37:37;;;;;;;21.47;7.93;;;;;;;21.95;83.64;95004.13;5074650;28;20446;-83
2023/09/23 04:40:07;;;;;;;18.57;8.60;;;;;;;22.30;81.91;95006.81;5093550;28;20933;-83
2023/09/23 04:42:35;;;;;;;14.50;6.70;;;;;;;22.66;78.92;95014.56;5094099;28;20470;-82
2023/09/23 04:45:04;;;;;;;19.93;8.13;;;;;;;22.91;76.78;95021.03;5093792;28;20441;-81
2023/09/23 04:47:32;;;;;;;14.17;7.30;;;;;;;23.16;75.31;95032.81;5093937;28;20774;-80
2023/09/23 04:49:59;;;;;;;20.37;8.30;;;;;;;23.37;73.80;95026.44;5093734;28;20522;-81
2023/09/23 04:52:27;;;;;;;14.20;7.40;;;;;;;23.62;72.93;95029.34;5093767;28;20477;-81
2023/09/23 04:54:54;;;;;;;16.87;8.00;;;;;;;23.82;71.09;95029.34;5093431;28;20569;-83
2023/09/23 04:57:21;;;;;;;17.03;6.93;;;;;;;23.85;70.65;95034.28;5093870;28;20453;-81
2023/09/23 04:59:48;;;;;;;25.17;7.90;;;;;;;23.70;70.32;95031.00;5093479;28;20749;-81
2023/09/23 05:02:17;;;;;;;13.43;6.33;;;;;;;23.71;70.64;95035.34;5093832;28;20457;-83
2023/09/23 05:04:45;;;;;;;23.27;7.90;;;;;;;23.85;70.59;95034.28;5094417;28;20511;-83
2023/09/23 05:07:12;;;;;;;17.17;7.40;;;;;;;23.94;70.43;95040.25;5075639;28;20446;-83
2023/09/23 05:09:39;;;;;;;17.67;8.17;;;;;;;23.99;68.21;95043.94;5093846;28;20509;-83
2023/09/23 05:12:08;;;;;;;25.50;7.23;;;;;;;24.10;68.71;95047.84;5094663;28;20453;-82
2023/09/23 05:14:35;;;;;;;21.10;8.07;;;;;;;24.02;68.18;95046.22;5093693;28;20530;-82
2023/09/23 05:17:04;;;;;;;17.43;7.50;;;;;;;23.99;69.91;95045.78;5058296;28;20537;-82
2023/09/23 05:19:33;;;;;;;34.80;12.37;;;;;;;24.02;70.55;95035.50;5093843;28;20493;-84
2023/09/23 05:21:59;;;;;;;23.83;11.03;;;;;;;24.23;70.27;95033.59;5093522;28;20435;-81
2023/09/23 05:24:27;;;;;;;47.70;18.30;;;;;;;24.36;68.75;95033.59;5095457;28;20496;-83
2023/09/23 05:26:54;;;;;;;32.07;13.27;;;;;;;24.47;69.77;95038.28;5093039;28;20510;-84
2023/09/23 05:29:21;;;;;;;71.70;20.23;;;;;;;24.75;68.19;95042.50;5093381;28;20443;-84
2023/09/23 05:31:48;;;;;;;44.30;16.47;;;;;;;25.03;68.01;95043.00;5093191;28;20439;-84
2023/09/23 05:34:16;;;;;;;51.53;18.50;;;;;;;25.29;66.35;95042.84;5093458;28;20432;-84
2023/09/23 05:36:45;;;;;;;85.70;16.40;;;;;;;25.53;63.07;95038.53;5093871;28;20444;-82
2023/09/23 05:39:13;;;;;;;14.97;8.00;;;;;;;25.69;61.77;95042.56;5058075;28;20435;-81
2023/09/23 05:41:40;;;;;;;44.37;15.57;;;;;;;25.88;62.39;95048.81;5093304;28;20462;-84
2023/09/23 05:44:08;;;;;;;52.17;20.17;;;;;;;25.85;62.88;95046.56;5094062;28;20809;-86
2023/09/23 05:46:37;;;;;;;69.20;21.10;;;;;;;25.75;64.79;95046.25;5094115;28;20440;-85
2023/09/23 05:49:05;;;;;;;57.10;23.13;;;;;;;26.04;65.06;95055.50;5094493;28;20940;-82
2023/09/23 05:51:33;;;;;;;58.77;18.90;;;;;;;26.38;63.77;95049.59;5097616;28;20495;-83
2023/09/23 05:54:01;;;;;;;72.77;24.70;;;;;;;26.39;64.12;95058.47;5096677;28;20933;-85
2023/09/23 05:56:28;;;;;;;21.90;9.90;;;;;;;26.56;63.80;95070.28;5096978;28;20447;-89
2023/09/23 05:58:55;;;;;;;34.47;11.40;;;;;;;26.08;64.62;95057.53;5098159;28;20737;-89
2023/09/23 06:01:22;;;;;;;15.93;8.90;;;;;;;25.80;65.34;95055.31;5097189;28;20467;-88
2023/09/23 06:03:49;;;;;;;13.63;7.60;;;;;;;25.85;66.10;95068.91;5098782;28;20440;-94
2023/09/23 06:06:16;;;;;;;22.00;9.20;;;;;;;25.87;66.12;95052.53;5103244;28;20451;-94
2023/09/23 06:08:42;;;;;;;14.10;8.13;;;;;;;25.91;66.82;95053.75;5106657;28;20440;-80
2023/09/23 06:11:11;;;;;;;15.80;7.23;;;;;;;26.16;65.72;95053.72;5090664;28;20500;-77
2023/09/23 06:13:38;;;;;;;18.30;7.70;;;;;;;26.12;65.53;95064.09;5097396;28;20922;-79
2023/09/23 06:16:07;;;;;;;19.70;8.40;;;;;;;26.05;65.89;95060.66;5095676;28;20878;-79
2023/09/23 06:18:34;;;;;;;18.50;8.87;;;;;;;26.45;66.50;95058.41;5095555;28;20941;-78
2023/09/23 06:21:02;;;;;;;14.40;7.20;;;;;;;26.80;65.28;95071.25;5093480;28;20958;-77
2023/09/23 06:23:29;;;;;;;17.90;7.97;;;;;;;27.11;64.08;95068.38;5076597;28;20444;-77
2023/09/23 06:25:56;;;;;;;20.03;8.47;;;;;;;27.42;63.44;95064.63;5075064;28;20449;-78
2023/09/23 06:28:24;;;;;;;16.97;8.23;;;;;;;27.64;64.55;95072.19;5059360;28;20493;-79
2023/09/23 06:30:52;;;;;;;18.00;8.30;;;;;;;27.96;60.26;95075.41;5081009;28;20496;-77
2023/09/23 06:33:19;;;;;;;11.47;7.60;;;;;;;27.97;60.26;95077.88;5080252;28;20438;-76
2023/09/23 06:35:46;;;;;;;13.40;8.07;;;;;;;27.77;60.56;95066.63;5094269;28;20432;-77
2023/09/23 06:38:13;;;;;;;18.20;8.53;;;;;;;27.73;61.45;95076.19;5059146;28;20466;-77
2023/09/23 06:40:40;;;;;;;24.43;8.43;;;;;;;27.74;68.51;95065.19;5086580;28;20910;-78
2023/09/23 06:43:07;;;;;;;13.07;7.60;;;;;;;27.70;61.16;95074.78;5094767;28;21134;-75
2023/09/23 06:45:35;;;;;;;12.00;6.80;;;;;;;27.52;63.02;95077.56;5094652;28;20448;-77
2023/09/23 06:48:02;;;;;;;12.73;7.50;;;;;;;27.29;62.69;95082.88;5081335;28;20778;-77
2023/09/23 06:50:29;;;;;;;18.97;8.90;;;;;;;27.57;63.11;95082.25;5094678;28;20490;-77
2023/09/23 06:52:57;;;;;;;19.10;7.30;;;;;;;27.15;64.34;95072.25;5095000;28;20785;-76
2023/09/23 06:55:23;;;;;;;14.63;7.67;;;;;;;27.14;63.99;95081.38;5075978;28;20448;-77
2023/09/23 08:22:59;;;;;;;24.63;8.90;;;;;;;29.03;55.97;95061.59;5090414;27;20535;-76
2023/09/23 08:25:26;;;;;;;15.57;7.87;;;;;;;29.28;53.74;95065.63;5089876;28;20440;-76
2023/09/23 08:27:53;;;;;;;14.43;6.87;;;;;;;29.30;51.57;95054.56;5089605;28;21164;-78
2023/09/23 08:30:21;;;;;;;14.17;6.73;;;;;;;29.28;52.60;95057.50;5053995;28;20945;-78
2023/09/23 08:32:48;;;;;;;13.20;7.10;;;;;;;29.50;51.82;95054.97;5089755;28;20432;-78
2023/09/23 08:35:15;;;;;;;17.00;7.73;;;;;;;29.45;51.81;95051.34;5089511;28;20447;-79
2023/09/23 08:37:45;;;;;;;17.37;8.97;;;;;;;29.59;55.34;95053.50;5089721;28;20433;-77
2023/09/23 08:40:15;;;;;;;16.37;8.20;;;;;;;29.69;51.06;95047.44;5089608;28;20472;-78
2023/09/23 08:42:42;;;;;;;12.20;6.57;;;;;;;29.71;48.74;95047.19;5089829;28;20865;-77
2023/09/23 08:45:09;;;;;;;21.00;6.97;;;;;;;29.75;50.31;95051.03;5090195;28;20443;-78
2023/09/23 08:47:37;;;;;;;17.37;7.03;;;;;;;29.68;50.41;95043.09;5089979;28;20458;-81
2023/09/23 08:50:06;;;;;;;18.23;7.43;;;;;;;29.73;51.39;95040.47;5089824;28;20468;-78
2023/09/23 08:52:33;;;;;;;16.10;8.43;;;;;;;29.71;49.39;95037.19;5090077;28;20453;-79
2023/09/23 08:55:01;;;;;;;19.80;6.70;;;;;;;29.62;48.98;95040.53;5089837;28;20980;-78
2023/09/23 08:57:29;;;;;;;17.10;8.00;;;;;;;29.71;48.69;95033.66;5090365;28;20450;-78
2023/09/23 08:59:57;;;;;;;12.30;6.50;;;;;;;29.77;48.90;95025.38;5089840;28;20435;-78
2023/09/23 09:02:25;;;;;;;14.90;7.73;;;;;;;29.89;48.14;95026.13;5089466;28;20491;-77
2023/09/23 09:04:54;;;;;;;10.50;6.60;;;;;;;30.01;48.22;95026.03;5089151;28;20440;-78
2023/09/23 09:07:24;;;;;;;14.23;6.90;;;;;;;29.92;47.91;95033.75;5054020;28;20443;-79
2023/09/23 09:09:51;;;;;;;14.93;6.30;;;;;;;29.97;48.96;95024.88;5089165;28;20531;-78
2023/09/23 09:12:18;;;;;;;21.57;7.10;;;;;;;29.93;47.55;95021.03;5089525;28;20861;-79
2023/09/23 09:14:51;;;;;;;20.87;7.00;;;;;;;29.84;48.13;95023.34;5089354;28;20440;-75
2023/09/23 09:17:18;;;;;;;22.37;7.77;;;;;;;29.70;48.29;95021.19;5089576;28;20448;-76
2023/09/23 09:19:45;;;;;;;18.40;6.57;;;;;;;29.70;47.49;95015.78;5089356;28;20436;-77
2023/09/23 09:22:12;;;;;;;11.63;6.60;;;;;;;29.60;48.08;95014.56;5088994;28;20499;-80
2023/09/23 09:24:40;;;;;;;17.90;7.20;;;;;;;29.74;47.48;95016.94;5089285;28;20450;-77
2023/09/23 09:27:12;;;;;;;20.00;6.73;;;;;;;29.81;48.39;95013.00;5089274;28;20444;-77
2023/09/23 09:29:40;;;;;;;17.17;7.60;;;;;;;29.87;47.82;95019.31;5053901;28;20478;-75
2023/09/23 09:32:10;;;;;;;16.27;6.93;;;;;;;29.81;48.03;95012.19;5088687;28;20505;-77
2023/09/23 09:34:45;;;;;;;18.43;7.70;;;;;;;29.87;47.54;95012.03;5075165;28;20469;-77
2023/09/23 09:37:13;;;;;;;22.83;7.40;;;;;;;29.95;48.31;95010.78;5075865;28;20484;-83
2023/09/23 09:39:50;;;;;;;17.17;8.00;;;;;;;30.06;47.52;95007.19;5076326;28;20440;-83
2023/09/23 09:42:24;;;;;;;25.40;7.50;;;;;;;30.09;46.51;94992.34;5056979;28;20495;-82
2023/09/23 09:44:54;;;;;;;24.57;8.23;;;;;;;30.18;46.44;94993.56;5040245;28;20444;-79
2023/09/23 09:47:23;;;;;;;22.67;7.77;;;;;;;30.16;47.80;94988.41;5075864;28;20440;-80
2023/09/23 09:49:52;;;;;;;14.87;7.70;;;;;;;30.24;47.57;94991.72;5075635;28;20793;-79
2023/09/23 09:52:21;;;;;;;18.37;7.37;;;;;;;30.25;45.96;94990.66;5075856;28;20473;-79
2023/09/23 09:54:52;;;;;;;16.60;6.30;;;;;;;30.29;44.71;94991.78;5075520;28;20445;-78
2023/09/23 09:57:20;;;;;;;16.90;7.40;;;;;;;30.14;42.98;94982.41;5075483;28;20993;-78
2023/09/23 09:59:46;;;;;;;20.10;6.20;;;;;;;29.96;44.45;94979.94;5074840;28;20797;-78
2023/09/23 10:02:14;;;;;;;22.33;6.57;;;;;;;30.02;46.09;94970.00;5075007;28;20898;-79
2023/09/23 10:04:46;;;;;;;21.57;6.90;;;;;;;30.05;45.48;94975.75;5074628;28;20504;-79
2023/09/23 10:07:14;;;;;;;19.00;7.70;;;;;;;30.16;47.76;94964.03;5074593;28;20444;-78
2023/09/23 10:09:53;;;;;;;20.87;6.73;;;;;;;30.13;44.71;94964.53;5074672;28;20444;-78
2023/09/23 10:12:25;;;;;;;23.43;7.83;;;;;;;30.23;46.84;94963.84;5074549;28;20444;-78
2023/09/23 10:14:55;;;;;;;17.30;7.60;;;;;;;30.36;45.45;94965.34;5074542;28;20445;-79
2023/09/23 10:17:30;;;;;;;20.37;6.70;;;;;;;30.44;45.53;94948.69;5074217;28;20477;-78
2023/09/23 10:19:59;;;;;;;12.93;6.53;;;;;;;30.49;44.58;94948.72;5074304;28;20878;-79
2023/09/23 10:22:29;;;;;;;22.40;7.50;;;;;;;30.46;44.63;94936.53;5075098;28;20584;-78
2023/09/23 10:25:04;;;;;;;26.27;7.93;;;;;;;30.47;43.83;94926.50;5074269;28;20436;-79
2023/09/23 10:27:32;;;;;;;14.00;7.20;;;;;;;30.37;45.32;94934.50;5074167;28;20432;-79
2023/09/23 10:30:00;;;;;;;27.10;8.33;;;;;;;30.41;46.16;94930.22;5073791;28;20452;-79
2023/09/23 10:32:26;;;;;;;20.63;6.60;;;;;;;30.45;44.89;94920.53;5073675;28;20455;-79
2023/09/23 10:34:55;;;;;;;28.90;6.50;;;;;;;30.43;45.19;94918.06;5074247;28;20433;-79
2023/09/23 10:37:32;;;;;;;21.53;6.83;;;;;;;30.46;45.34;94920.28;5073705;28;20551;-79
2023/09/23 10:40:10;;;;;;;16.80;7.10;;;;;;;30.36;46.23;94914.75;5073867;28;20444;-79
2023/09/23 10:42:37;;;;;;;25.57;8.07;;;;;;;30.45;45.94;94918.63;5073651;28;20494;-79
2023/09/23 10:45:05;;;;;;;25.20;6.60;;;;;;;30.47;44.19;94919.19;5072821;28;20527;-79
2023/09/23 10:47:32;;;;;;;29.37;8.63;;;;;;;30.53;44.90;94914.66;5073749;28;20441;-79
2023/09/23 10:49:59;;;;;;;24.00;7.50;;;;;;;30.64;45.29;94911.00;5073734;28;20441;-79
2023/09/23 10:52:26;;;;;;;23.73;7.10;;;;;;;30.74;45.77;94913.84;5073734;28;20437;-79
2023/09/23 10:54:55;;;;;;;32.97;7.70;;;;;;;30.77;45.25;94909.81;5073408;28;20453;-79
2023/09/23 10:57:23;;;;;;;23.00;7.40;;;;;;;30.83;44.83;94909.59;5073356;28;20440;-79
2023/09/23 10:59:50;;;;;;;19.43;6.87;;;;;;;30.90;45.16;94895.00;5073366;28;20445;-79
2023/09/23 11:02:17;;;;;;;19.33;7.03;;;;;;;30.91;43.90;94892.03;5073137;28;20484;-79
2023/09/23 11:04:46;;;;;;;20.07;7.50;;;;;;;30.94;43.91;94890.69;5073794;28;20502;-79
2023/09/23 11:07:13;;;;;;;27.53;7.47;;;;;;;30.99;44.30;94894.31;5073110;28;20521;-79
2023/09/23 11:09:40;;;;;;;23.03;7.37;;;;;;;31.01;43.51;94880.50;5072967;28;20486;-79
2023/09/23 11:12:12;;;;;;;26.73;8.77;;;;;;;30.96;43.95;94877.75;5073295;28;20445;-79
2023/09/23 11:14:39;;;;;;;24.43;8.53;;;;;;;30.98;44.64;94870.97;5072954;28;20441;-80
2023/09/23 11:17:05;;;;;;;28.77;7.30;;;;;;;31.03;42.63;94862.06;5073004;28;20934;-79
2023/09/23 11:19:32;;;;;;;20.20;6.80;;;;;;;31.03;43.85;94853.94;5072821;28;20813;-80
2023/09/23 11:22:03;;;;;;;22.30;7.43;;;;;;;31.12;44.62;94849.69;5072826;28;20493;-86
2023/09/23 11:24:38;;;;;;;19.00;7.97;;;;;;;31.17;43.72;94854.34;5073556;28;20437;-86
2023/09/23 11:27:08;;;;;;;23.77;7.57;;;;;;;31.16;43.33;94844.53;5072929;28;20444;-87
2023/09/23 11:29:35;;;;;;;16.67;7.27;;;;;;;31.17;42.02;94846.22;5073588;28;20510;-87
2023/09/23 11:32:02;;;;;;;20.33;7.63;;;;;;;31.23;44.03;94843.31;5072919;28;20794;-84
2023/09/23 11:34:30;;;;;;;16.80;6.87;;;;;;;31.25;43.70;94838.44;5072671;28;20444;-79
2023/09/23 11:36:57;;;;;;;22.83;7.43;;;;;;;31.34;43.40;94847.72;5072674;28;20927;-79
2023/09/23 11:39:24;;;;;;;36.90;7.47;;;;;;;31.37;43.04;94836.34;5037231;28;20799;-79
2023/09/23 11:41:57;;;;;;;26.87;6.90;;;;;;;31.36;41.07;94829.28;5072559;28;20492;-79
2023/09/23 11:44:25;;;;;;;18.13;7.43;;;;;;;31.35;40.89;94821.41;5072447;28;20449;-79
2023/09/23 11:46:52;;;;;;;23.83;7.33;;;;;;;31.39;41.48;94822.50;5037290;28;20962;-79
2023/09/23 11:49:19;;;;;;;19.83;6.60;;;;;;;31.44;41.52;94820.66;5072715;28;20437;-79
2023/09/23 11:51:45;;;;;;;14.73;6.90;;;;;;;31.44;40.06;94822.53;5072618;28;20448;-79
2023/09/23 11:54:12;;;;;;;19.10;7.37;;;;;;;31.44;39.04;94819.81;5072646;28;20441;-79
2023/09/23 11:56:39;;;;;;;21.03;7.20;;;;;;;31.44;39.90;94806.25;5072364;28;20441;-80
2023/09/23 11:59:06;;;;;;;34.93;9.10;;;;;;;31.42;39.07;94806.53;5072562;28;20452;-80
2023/09/23 12:01:34;;;;;;;33.77;7.77;;;;;;;31.45;39.94;94807.91;5072390;28;20448;-80
2023/09/23 12:04:01;;;;;;;17.87;6.10;;;;;;;31.54;40.98;94802.81;5073501;28;20496;-87
2023/09/23 12:06:29;;;;;;;20.00;6.77;;;;;;;31.58;41.18;94798.50;5074525;28;20447;-86
2023/09/23 12:08:56;;;;;;;19.90;6.93;;;;;;;31.65;39.94;94793.63;5073714;28;20472;-87
2023/09/23 12:11:23;;;;;;;23.57;7.80;;;;;;;31.78;39.32;94795.88;5073335;28;20528;-85
2023/09/23 12:13:52;;;;;;;21.67;7.27;;;;;;;31.82;37.81;94788.88;5073751;28;20440;-86
2023/09/23 12:16:19;;;;;;;18.90;6.20;;;;;;;31.84;36.67;94786.72;5074136;28;20495;-87
2023/09/23 12:18:48;;;;;;;37.17;8.23;;;;;;;31.86;37.01;94786.44;5072973;28;20484;-85
2023/09/23 12:21:15;;;;;;;24.30;6.67;;;;;;;31.89;36.52;94783.19;5073394;28;20823;-85
2023/09/23 12:23:42;;;;;;;27.47;6.57;;;;;;;31.92;36.93;94788.91;5073391;28;20590;-85
2023/09/23 12:26:09;;;;;;;27.47;8.30;;;;;;;31.94;36.67;94781.31;5074526;28;20935;-82
2023/09/23 12:28:36;;;;;;;21.63;6.90;;;;;;;31.97;36.34;94778.06;5039200;28;20441;-81
2023/09/23 12:31:03;;;;;;;31.47;7.13;;;;;;;32.02;36.77;94769.94;5073234;28;20448;-85
2023/09/23 12:33:30;;;;;;;18.53;5.90;;;;;;;31.99;37.80;94767.75;5073582;28;20862;-80
2023/09/23 12:35:58;;;;;;;23.83;6.60;;;;;;;32.01;36.90;94771.00;5072204;28;20455;-79
2023/09/23 12:38:25;;;;;;;31.70;7.70;;;;;;;32.03;36.23;94763.41;5053622;28;20903;-80
2023/09/23 12:40:52;;;;;;;19.23;6.27;;;;;;;32.08;34.90;94764.50;5072905;28;20793;-78
2023/09/23 12:43:18;;;;;;;21.40;6.77;;;;;;;32.09;34.71;94763.44;5072214;28;20546;-79
2023/09/23 12:45:45;;;;;;;25.00;7.40;;;;;;;32.03;33.74;94760.69;5072997;28;20527;-79
2023/09/23 12:48:12;;;;;;;18.00;5.97;;;;;;;32.03;34.31;94760.69;5072518;28;20455;-78
2023/09/23 12:50:39;;;;;;;30.63;7.67;;;;;;;32.11;35.16;94753.16;5072386;28;20821;-78
2023/09/23 12:53:07;;;;;;;30.10;7.37;;;;;;;32.14;35.56;94753.41;5072195;28;20444;-78